Benton, Louisiana
Current Conditions -  °F | °C
As of 9:53 AM on Monday 26 Jan 2015 (Local Time) from KDTN Reporting Station
Clear Clear  
Wind Chill: 45°   Ceiling: Unl
Heat Index: 48°   Visibility: 10mi
Dew Point: 32°   Wind: 6mph
Humidity: 54%   Direction: NA
Pressure: 30.22"   Gusts: NA
Location:  32.69°N, 93.74°W
Report Text: KDTN 261553Z VRB05KT 10SM CLR 09/00 A3022 RMK AO2 SLP232 T00890000
Loading
Personal Weather Stations






























Interactive Weather Map New forecast layout! Learn more

10-Day Weather Forecast

Advertisements
Track Severe Weather on mobile